KFFO/FFO METAR and TAF weather

Enter ICAO airport designator
Station Type Date Time Source
KFFO METAR 2019/12/14 19:26 UTC NOAA

KFFO 141926Z 25011KT 10SM BKN023 OVC085 06/02 A2963 RMK AO2A SLP041


Station Type Date Time Source
KFFO Decoded METAR 2019/12/14 19:26 UTC NOAA

Dayton / Wright-Patterson Air Force Base, OH, United States (KFFO) 39-50N 084-03W 251M
Dec 14, 2019 - 02:26 PM EST / 2019.12.14 1926 UTC
Wind: from the WSW (250 degrees) at 13 MPH (11 KT):0
Visibility: 10 mile(s):0
Sky conditions: overcast
Temperature: 42 F (6 C)
Dew Point: 35 F (2 C)
Relative Humidity: 75%
Pressure (altimeter): 29.63 in. Hg (1003 hPa)
ob: KFFO 141926Z 25011KT 10SM BKN023 OVC085 06/02 A2963 RMK AO2A SLP041
cycle: 19

Station Type Date Time Source
KFFO TAF 2019/12/14 19:12 UTC NOAA

TAF KFFO 141900Z 1419/1601 28010G15KT 9999 OVC020 620409 QNH2962INS
BECMG 1420/1421 30012KT 9999 BKN015 620303 QNH2966INS
BECMG 1506/1507 27012KT 9999 BKN015 BKN030 620303 QNH2985INS
BECMG 1512/1513 28012G18KT 9999 BKN025 BKN150 QNH3003INS
BECMG 1515/1516 24009KT 9999 FEW025 BKN100 QNH3010INS
BECMG 1600/1601 18009KT 8000 -SN SCT020 BKN060 OVC100 620602 QNH3013INS TX08/1421Z TNM03/1511Z

Example: see airport list